CheckWX is a tool to help pilots better visualize weather data.  It is not intended as a substitute for an official pre-flight weather briefing.

14:50:23 UTC

KFDY TAF
Findlay Airport
Findlay, Ohio, USA
KFDY 231130Z 2312/2412 29007KT P6SM SKC FM232200 26005KT P6SM FEW250 FM240600 19004KT P6SM BKN200

Mar-23@
12:00 UTC

Mar-23 @ 12:00 UTC

Mar-23@
22:00 UTC

Mar-23 @ 22:00 UTC

KFDY 231130Z 2312/2412 29007KT P6SM SKC
Wind
  • 290° at 7 KTS
Cloud Levels
  • Clear skies

Mar-23@
22:00 UTC

Mar-23 @ 22:00 UTC

Mar-24@
06:00 UTC

Mar-24 @ 06:00 UTC

FM232200 26005KT P6SM FEW250

From

From Standard forecast or significant change

Wind
  • 260° at 5 KTS
Cloud Levels
  • Few at 25,000' AGL

Mar-24@
06:00 UTC

Mar-24 @ 06:00 UTC

Mar-24@
12:00 UTC

Mar-24 @ 12:00 UTC

FM240600 19004KT P6SM BKN200

From

From Standard forecast or significant change

Wind
  • 190° at 4 KTS
Cloud Levels
  • Broken at 20,000' AGL